sensor_id;sensor_type;location;lat;lon;timestamp;temperature;humidity
29321;DHT22;16323;51.130;6.612;2023-04-10T00:00:29;17.40;60.30
29321;DHT22;16323;51.130;6.612;2023-04-10T00:02:57;17.50;60.30
29321;DHT22;16323;51.130;6.612;2023-04-10T00:05:25;17.40;60.10
29321;DHT22;16323;51.130;6.612;2023-04-10T00:07:52;17.40;60.00
29321;DHT22;16323;51.130;6.612;2023-04-10T00:10:19;17.40;59.90
29321;DHT22;16323;51.130;6.612;2023-04-10T00:12:48;17.40;59.50
29321;DHT22;16323;51.130;6.612;2023-04-10T00:15:15;17.50;59.60
29321;DHT22;16323;51.130;6.612;2023-04-10T00:17:42;17.40;59.60
29321;DHT22;16323;51.130;6.612;2023-04-10T00:20:09;17.40;59.60
29321;DHT22;16323;51.130;6.612;2023-04-10T00:22:36;17.40;59.40
29321;DHT22;16323;51.130;6.612;2023-04-10T00:25:03;17.40;59.20
29321;DHT22;16323;51.130;6.612;2023-04-10T00:27:31;17.40;59.20
29321;DHT22;16323;51.130;6.612;2023-04-10T00:29:59;17.40;60.50
29321;DHT22;16323;51.130;6.612;2023-04-10T00:32:26;17.50;59.80
29321;DHT22;16323;51.130;6.612;2023-04-10T00:34:53;17.40;59.70
29321;DHT22;16323;51.130;6.612;2023-04-10T00:37:20;17.50;59.90
29321;DHT22;16323;51.130;6.612;2023-04-10T00:39:47;17.50;60.10
29321;DHT22;16323;51.130;6.612;2023-04-10T00:42:13;17.50;59.90
29321;DHT22;16323;51.130;6.612;2023-04-10T00:44:40;17.50;60.10
29321;DHT22;16323;51.130;6.612;2023-04-10T00:47:08;17.50;59.90
29321;DHT22;16323;51.130;6.612;2023-04-10T00:49:35;17.50;59.90
29321;DHT22;16323;51.130;6.612;2023-04-10T00:52:02;17.50;59.60
29321;DHT22;16323;51.130;6.612;2023-04-10T00:54:30;17.50;59.50
29321;DHT22;16323;51.130;6.612;2023-04-10T00:56:57;17.50;59.50
29321;DHT22;16323;51.130;6.612;2023-04-10T00:59:24;17.50;59.10
29321;DHT22;16323;51.130;6.612;2023-04-10T01:01:51;17.50;59.30
29321;DHT22;16323;51.130;6.612;2023-04-10T01:04:19;17.50;59.20
29321;DHT22;16323;51.130;6.612;2023-04-10T01:06:56;17.50;59.10
29321;DHT22;16323;51.130;6.612;2023-04-10T01:09:34;17.50;60.20
29321;DHT22;16323;51.130;6.612;2023-04-10T01:12:14;17.50;59.00
29321;DHT22;16323;51.130;6.612;2023-04-10T01:14:50;17.50;58.80
29321;DHT22;16323;51.130;6.612;2023-04-10T01:17:25;17.40;58.70
29321;DHT22;16323;51.130;6.612;2023-04-10T01:20:01;17.50;58.60
29321;DHT22;16323;51.130;6.612;2023-04-10T01:22:34;17.40;58.70
29321;DHT22;16323;51.130;6.612;2023-04-10T01:25:18;17.50;59.00
29321;DHT22;16323;51.130;6.612;2023-04-10T01:28:04;17.50;59.40
29321;DHT22;16323;51.130;6.612;2023-04-10T01:30:34;17.50;59.40
29321;DHT22;16323;51.130;6.612;2023-04-10T01:33:02;17.50;59.30
29321;DHT22;16323;51.130;6.612;2023-04-10T01:35:32;17.50;59.20
29321;DHT22;16323;51.130;6.612;2023-04-10T01:38:02;17.50;59.30
29321;DHT22;16323;51.130;6.612;2023-04-10T01:40:32;17.50;59.20
29321;DHT22;16323;51.130;6.612;2023-04-10T01:43:02;17.50;59.30
29321;DHT22;16323;51.130;6.612;2023-04-10T01:45:32;17.50;59.10
29321;DHT22;16323;51.130;6.612;2023-04-10T01:48:01;17.50;58.60
29321;DHT22;16323;51.130;6.612;2023-04-10T01:50:28;17.50;58.80
29321;DHT22;16323;51.130;6.612;2023-04-10T01:52:56;17.50;58.80
29321;DHT22;16323;51.130;6.612;2023-04-10T01:55:25;17.50;58.50
29321;DHT22;16323;51.130;6.612;2023-04-10T01:57:53;17.50;58.60
29321;DHT22;16323;51.130;6.612;2023-04-10T02:00:21;17.40;59.50
29321;DHT22;16323;51.130;6.612;2023-04-10T02:02:47;17.40;58.30
29321;DHT22;16323;51.130;6.612;2023-04-10T02:05:16;17.40;58.10
29321;DHT22;16323;51.130;6.612;2023-04-10T02:07:48;17.40;58.10
29321;DHT22;16323;51.130;6.612;2023-04-10T02:10:22;17.40;58.20
29321;DHT22;16323;51.130;6.612;2023-04-10T02:12:52;17.40;58.10
29321;DHT22;16323;51.130;6.612;2023-04-10T02:15:23;17.40;58.30
29321;DHT22;16323;51.130;6.612;2023-04-10T02:17:51;17.40;58.40
29321;DHT22;16323;51.130;6.612;2023-04-10T02:20:19;17.40;58.40
29321;DHT22;16323;51.130;6.612;2023-04-10T02:22:48;17.50;58.60
29321;DHT22;16323;51.130;6.612;2023-04-10T02:25:15;17.50;58.80
29321;DHT22;16323;51.130;6.612;2023-04-10T02:27:42;17.50;58.80
29321;DHT22;16323;51.130;6.612;2023-04-10T02:30:10;17.50;58.80
29321;DHT22;16323;51.130;6.612;2023-04-10T02:32:37;17.50;58.70
29321;DHT22;16323;51.130;6.612;2023-04-10T02:35:04;17.50;58.80
29321;DHT22;16323;51.130;6.612;2023-04-10T02:37:32;17.50;58.70
29321;DHT22;16323;51.130;6.612;2023-04-10T02:40:00;17.50;58.40
29321;DHT22;16323;51.130;6.612;2023-04-10T02:42:27;17.40;58.10
29321;DHT22;16323;51.130;6.612;2023-04-10T02:44:53;17.40;58.00
29321;DHT22;16323;51.130;6.612;2023-04-10T02:47:20;17.40;58.20
29321;DHT22;16323;51.130;6.612;2023-04-10T02:49:48;17.40;57.70
29321;DHT22;16323;51.130;6.612;2023-04-10T02:52:15;17.40;57.80
29321;DHT22;16323;51.130;6.612;2023-04-10T02:54:43;17.40;57.70
29321;DHT22;16323;51.130;6.612;2023-04-10T02:57:10;17.40;57.70
29321;DHT22;16323;51.130;6.612;2023-04-10T02:59:37;17.40;57.80
29321;DHT22;16323;51.130;6.612;2023-04-10T03:02:04;17.40;57.60
29321;DHT22;16323;51.130;6.612;2023-04-10T03:04:31;17.40;57.60
29321;DHT22;16323;51.130;6.612;2023-04-10T03:06:58;17.40;57.70
29321;DHT22;16323;51.130;6.612;2023-04-10T03:09:24;17.40;57.70
29321;DHT22;16323;51.130;6.612;2023-04-10T03:11:53;17.40;58.10
29321;DHT22;16323;51.130;6.612;2023-04-10T03:14:19;17.40;58.10
29321;DHT22;16323;51.130;6.612;2023-04-10T03:16:46;17.40;58.40
29321;DHT22;16323;51.130;6.612;2023-04-10T03:19:13;17.40;58.40
29321;DHT22;16323;51.130;6.612;2023-04-10T03:21:40;17.40;58.50
29321;DHT22;16323;51.130;6.612;2023-04-10T03:24:07;17.40;58.40
29321;DHT22;16323;51.130;6.612;2023-04-10T03:26:34;17.40;58.50
29321;DHT22;16323;51.130;6.612;2023-04-10T03:29:02;17.40;58.40
29321;DHT22;16323;51.130;6.612;2023-04-10T03:31:29;17.40;58.10
29321;DHT22;16323;51.130;6.612;2023-04-10T03:33:56;17.40;57.90
29321;DHT22;16323;51.130;6.612;2023-04-10T03:36:23;17.40;57.80
29321;DHT22;16323;51.130;6.612;2023-04-10T03:38:49;17.40;57.60
29321;DHT22;16323;51.130;6.612;2023-04-10T03:41:17;17.40;57.60
29321;DHT22;16323;51.130;6.612;2023-04-10T03:43:44;17.40;57.50
29321;DHT22;16323;51.130;6.612;2023-04-10T03:46:12;17.40;57.40
29321;DHT22;16323;51.130;6.612;2023-04-10T03:48:39;17.40;57.20
29321;DHT22;16323;51.130;6.612;2023-04-10T03:51:06;17.40;57.00
29321;DHT22;16323;51.130;6.612;2023-04-10T03:53:33;17.40;57.10
29321;DHT22;16323;51.130;6.612;2023-04-10T03:56:00;17.40;57.00
29321;DHT22;16323;51.130;6.612;2023-04-10T03:58:27;17.40;58.10
29321;DHT22;16323;51.130;6.612;2023-04-10T04:00:54;17.40;58.50
29321;DHT22;16323;51.130;6.612;2023-04-10T04:03:22;17.40;57.80
29321;DHT22;16323;51.130;6.612;2023-04-10T04:05:49;17.40;58.00
29321;DHT22;16323;51.130;6.612;2023-04-10T04:08:16;17.40;57.70
29321;DHT22;16323;51.130;6.612;2023-04-10T04:10:43;17.40;57.60
29321;DHT22;16323;51.130;6.612;2023-04-10T04:13:10;17.30;57.20
29321;DHT22;16323;51.130;6.612;2023-04-10T04:15:37;17.30;57.20
29321;DHT22;16323;51.130;6.612;2023-04-10T04:18:03;17.30;56.90
29321;DHT22;16323;51.130;6.612;2023-04-10T04:20:32;17.30;57.00
29321;DHT22;16323;51.130;6.612;2023-04-10T04:22:58;17.30;56.90
29321;DHT22;16323;51.130;6.612;2023-04-10T04:25:25;17.30;56.40
29321;DHT22;16323;51.130;6.612;2023-04-10T04:27:52;17.30;56.40
29321;DHT22;16323;51.130;6.612;2023-04-10T04:30:19;17.30;56.40
29321;DHT22;16323;51.130;6.612;2023-04-10T04:32:45;17.30;56.40
29321;DHT22;16323;51.130;6.612;2023-04-10T04:35:12;17.30;56.50
29321;DHT22;16323;51.130;6.612;2023-04-10T04:37:40;17.30;56.40
29321;DHT22;16323;51.130;6.612;2023-04-10T04:40:08;17.40;56.50
29321;DHT22;16323;51.130;6.612;2023-04-10T04:42:34;17.30;56.50
29321;DHT22;16323;51.130;6.612;2023-04-10T04:45:01;17.30;56.50
29321;DHT22;16323;51.130;6.612;2023-04-10T04:47:28;17.30;56.60
29321;DHT22;16323;51.130;6.612;2023-04-10T04:49:55;17.30;56.70
29321;DHT22;16323;51.130;6.612;2023-04-10T04:52:22;17.30;56.90
29321;DHT22;16323;51.130;6.612;2023-04-10T04:54:51;17.40;57.10
29321;DHT22;16323;51.130;6.612;2023-04-10T04:57:18;17.40;57.40
29321;DHT22;16323;51.130;6.612;2023-04-10T04:59:44;17.40;57.50
29321;DHT22;16323;51.130;6.612;2023-04-10T05:02:11;17.40;57.60
29321;DHT22;16323;51.130;6.612;2023-04-10T05:04:38;17.40;57.50
29321;DHT22;16323;51.130;6.612;2023-04-10T05:07:05;17.40;57.60
29321;DHT22;16323;51.130;6.612;2023-04-10T05:09:31;17.40;57.60
29321;DHT22;16323;51.130;6.612;2023-04-10T05:12:00;17.40;57.60
29321;DHT22;16323;51.130;6.612;2023-04-10T05:14:26;17.40;57.60
29321;DHT22;16323;51.130;6.612;2023-04-10T05:16:53;17.40;57.30
29321;DHT22;16323;51.130;6.612;2023-04-10T05:19:20;17.40;57.10
29321;DHT22;16323;51.130;6.612;2023-04-10T05:21:47;17.40;57.20
29321;DHT22;16323;51.130;6.612;2023-04-10T05:24:13;17.40;57.10
29321;DHT22;16323;51.130;6.612;2023-04-10T05:26:40;17.40;57.20
29321;DHT22;16323;51.130;6.612;2023-04-10T05:29:08;17.40;57.20
29321;DHT22;16323;51.130;6.612;2023-04-10T05:31:35;17.40;57.00
29321;DHT22;16323;51.130;6.612;2023-04-10T05:34:02;17.40;58.40
29321;DHT22;16323;51.130;6.612;2023-04-10T05:36:29;17.40;57.30
29321;DHT22;16323;51.130;6.612;2023-04-10T05:38:56;17.40;57.10
29321;DHT22;16323;51.130;6.612;2023-04-10T05:41:23;17.40;57.10
29321;DHT22;16323;51.130;6.612;2023-04-10T05:43:49;17.40;57.00
29321;DHT22;16323;51.130;6.612;2023-04-10T05:46:17;17.40;57.30
29321;DHT22;16323;51.130;6.612;2023-04-10T05:48:44;17.40;57.40
29321;DHT22;16323;51.130;6.612;2023-04-10T05:51:11;17.40;57.50
29321;DHT22;16323;51.130;6.612;2023-04-10T05:53:38;17.50;57.70
29321;DHT22;16323;51.130;6.612;2023-04-10T05:56:05;17.50;57.80
29321;DHT22;16323;51.130;6.612;2023-04-10T05:58:33;17.50;57.70
29321;DHT22;16323;51.130;6.612;2023-04-10T06:01:00;17.50;57.80
29321;DHT22;16323;51.130;6.612;2023-04-10T06:03:28;17.50;57.90
29321;DHT22;16323;51.130;6.612;2023-04-10T06:05:56;17.50;57.80
29321;DHT22;16323;51.130;6.612;2023-04-10T06:08:22;17.50;57.80
29321;DHT22;16323;51.130;6.612;2023-04-10T06:10:49;17.50;57.70
29321;DHT22;16323;51.130;6.612;2023-04-10T06:13:16;17.40;57.10
29321;DHT22;16323;51.130;6.612;2023-04-10T06:15:43;17.50;57.40
29321;DHT22;16323;51.130;6.612;2023-04-10T06:18:10;17.50;57.60
29321;DHT22;16323;51.130;6.612;2023-04-10T06:20:38;17.40;57.80
29321;DHT22;16323;51.130;6.612;2023-04-10T06:23:05;17.40;57.90
29321;DHT22;16323;51.130;6.612;2023-04-10T06:25:31;17.40;57.80
29321;DHT22;16323;51.130;6.612;2023-04-10T06:27:58;17.40;57.90
29321;DHT22;16323;51.130;6.612;2023-04-10T06:30:25;17.40;57.90
29321;DHT22;16323;51.130;6.612;2023-04-10T06:32:52;17.40;57.90
29321;DHT22;16323;51.130;6.612;2023-04-10T06:35:19;17.40;57.80
29321;DHT22;16323;51.130;6.612;2023-04-10T06:37:48;17.40;58.10
29321;DHT22;16323;51.130;6.612;2023-04-10T06:40:15;17.30;58.10
29321;DHT22;16323;51.130;6.612;2023-04-10T06:42:42;17.40;58.30
29321;DHT22;16323;51.130;6.612;2023-04-10T06:45:09;17.40;58.40
29321;DHT22;16323;51.130;6.612;2023-04-10T06:47:36;17.40;58.30
29321;DHT22;16323;51.130;6.612;2023-04-10T06:50:03;17.40;58.40
29321;DHT22;16323;51.130;6.612;2023-04-10T06:52:31;17.40;58.40
29321;DHT22;16323;51.130;6.612;2023-04-10T06:54:59;17.40;58.50
29321;DHT22;16323;51.130;6.612;2023-04-10T06:57:26;17.40;58.40
29321;DHT22;16323;51.130;6.612;2023-04-10T06:59:53;17.40;58.30
29321;DHT22;16323;51.130;6.612;2023-04-10T07:02:20;17.40;58.20
29321;DHT22;16323;51.130;6.612;2023-04-10T07:04:47;17.40;58.10
29321;DHT22;16323;51.130;6.612;2023-04-10T07:07:14;17.40;58.00
29321;DHT22;16323;51.130;6.612;2023-04-10T07:09:42;17.40;58.00
29321;DHT22;16323;51.130;6.612;2023-04-10T07:12:10;17.40;57.90
29321;DHT22;16323;51.130;6.612;2023-04-10T07:14:37;17.40;57.80
29321;DHT22;16323;51.130;6.612;2023-04-10T07:17:04;17.40;58.00
29321;DHT22;16323;51.130;6.612;2023-04-10T07:19:30;17.40;58.00
29321;DHT22;16323;51.130;6.612;2023-04-10T07:21:58;17.40;58.10
29321;DHT22;16323;51.130;6.612;2023-04-10T07:24:25;17.40;58.10
29321;DHT22;16323;51.130;6.612;2023-04-10T07:26:52;17.40;58.20
29321;DHT22;16323;51.130;6.612;2023-04-10T07:29:20;17.40;58.40
29321;DHT22;16323;51.130;6.612;2023-04-10T07:31:47;17.40;58.70
29321;DHT22;16323;51.130;6.612;2023-04-10T07:34:14;17.40;58.60
29321;DHT22;16323;51.130;6.612;2023-04-10T07:36:41;17.40;58.70
29321;DHT22;16323;51.130;6.612;2023-04-10T07:39:08;17.40;58.40
29321;DHT22;16323;51.130;6.612;2023-04-10T07:41:35;17.40;58.40
29321;DHT22;16323;51.130;6.612;2023-04-10T07:44:02;17.50;58.50
29321;DHT22;16323;51.130;6.612;2023-04-10T07:46:30;17.40;58.30
29321;DHT22;16323;51.130;6.612;2023-04-10T07:48:57;17.50;58.30
29321;DHT22;16323;51.130;6.612;2023-04-10T07:51:24;17.50;58.30
29321;DHT22;16323;51.130;6.612;2023-04-10T07:53:50;17.50;58.20
29321;DHT22;16323;51.130;6.612;2023-04-10T07:56:18;17.50;58.20
29321;DHT22;16323;51.130;6.612;2023-04-10T07:58:46;17.50;58.40
29321;DHT22;16323;51.130;6.612;2023-04-10T08:01:13;17.50;58.20
29321;DHT22;16323;51.130;6.612;2023-04-10T08:03:44;17.50;58.00
29321;DHT22;16323;51.130;6.612;2023-04-10T08:06:11;17.50;58.00
29321;DHT22;16323;51.130;6.612;2023-04-10T08:08:39;17.50;58.10
29321;DHT22;16323;51.130;6.612;2023-04-10T08:11:07;17.50;58.20
29321;DHT22;16323;51.130;6.612;2023-04-10T08:13:47;17.50;58.10
29321;DHT22;16323;51.130;6.612;2023-04-10T08:16:14;17.50;58.00
29321;DHT22;16323;51.130;6.612;2023-04-10T08:18:42;17.50;58.00
29321;DHT22;16323;51.130;6.612;2023-04-10T08:21:09;17.50;58.10
29321;DHT22;16323;51.130;6.612;2023-04-10T08:23:35;17.50;58.10
29321;DHT22;16323;51.130;6.612;2023-04-10T08:26:02;17.50;58.10
29321;DHT22;16323;51.130;6.612;2023-04-10T08:28:29;17.50;58.00
29321;DHT22;16323;51.130;6.612;2023-04-10T08:30:57;17.60;58.10
29321;DHT22;16323;51.130;6.612;2023-04-10T08:33:24;17.60;58.10
29321;DHT22;16323;51.130;6.612;2023-04-10T08:35:52;17.60;58.10
29321;DHT22;16323;51.130;6.612;2023-04-10T08:38:19;17.60;58.10
29321;DHT22;16323;51.130;6.612;2023-04-10T08:40:48;17.60;58.10
29321;DHT22;16323;51.130;6.612;2023-04-10T08:43:15;17.60;57.70
29321;DHT22;16323;51.130;6.612;2023-04-10T08:45:42;17.60;57.80
29321;DHT22;16323;51.130;6.612;2023-04-10T08:48:10;17.60;57.80
29321;DHT22;16323;51.130;6.612;2023-04-10T08:50:40;17.60;57.80
29321;DHT22;16323;51.130;6.612;2023-04-10T08:53:11;17.60;57.70
29321;DHT22;16323;51.130;6.612;2023-04-10T08:55:38;17.60;57.70
29321;DHT22;16323;51.130;6.612;2023-04-10T08:58:05;17.60;57.50
29321;DHT22;16323;51.130;6.612;2023-04-10T09:00:33;17.60;57.70
29321;DHT22;16323;51.130;6.612;2023-04-10T09:03:03;17.60;57.70
29321;DHT22;16323;51.130;6.612;2023-04-10T09:05:34;17.60;57.70
29321;DHT22;16323;51.130;6.612;2023-04-10T09:08:01;17.60;57.40
29321;DHT22;16323;51.130;6.612;2023-04-10T09:10:29;17.60;57.40
29321;DHT22;16323;51.130;6.612;2023-04-10T09:12:56;17.60;57.30
29321;DHT22;16323;51.130;6.612;2023-04-10T09:15:23;17.60;57.80
29321;DHT22;16323;51.130;6.612;2023-04-10T09:17:58;17.60;57.60
29321;DHT22;16323;51.130;6.612;2023-04-10T09:20:27;17.70;57.90
29321;DHT22;16323;51.130;6.612;2023-04-10T09:22:54;17.70;57.70
29321;DHT22;16323;51.130;6.612;2023-04-10T09:25:30;17.70;57.70
29321;DHT22;16323;51.130;6.612;2023-04-10T09:28:05;17.70;57.80
29321;DHT22;16323;51.130;6.612;2023-04-10T09:30:33;17.70;57.80
29321;DHT22;16323;51.130;6.612;2023-04-10T09:33:01;17.70;57.70
29321;DHT22;16323;51.130;6.612;2023-04-10T09:35:35;17.70;57.70
29321;DHT22;16323;51.130;6.612;2023-04-10T09:38:13;17.70;57.50
29321;DHT22;16323;51.130;6.612;2023-04-10T09:40:42;17.70;57.60
29321;DHT22;16323;51.130;6.612;2023-04-10T09:43:17;17.70;57.40
29321;DHT22;16323;51.130;6.612;2023-04-10T09:45:52;17.70;57.40
29321;DHT22;16323;51.130;6.612;2023-04-10T09:48:19;17.70;57.50
29321;DHT22;16323;51.130;6.612;2023-04-10T09:50:46;17.70;57.40
29321;DHT22;16323;51.130;6.612;2023-04-10T09:53:14;17.70;57.20
29321;DHT22;16323;51.130;6.612;2023-04-10T09:55:46;17.70;57.40
29321;DHT22;16323;51.130;6.612;2023-04-10T09:58:13;17.70;57.40
29321;DHT22;16323;51.130;6.612;2023-04-10T10:00:41;17.70;57.50
29321;DHT22;16323;51.130;6.612;2023-04-10T10:03:10;17.70;57.30
29321;DHT22;16323;51.130;6.612;2023-04-10T10:05:39;17.70;57.20
29321;DHT22;16323;51.130;6.612;2023-04-10T10:08:08;17.70;57.30
29321;DHT22;16323;51.130;6.612;2023-04-10T10:10:38;17.70;57.60
29321;DHT22;16323;51.130;6.612;2023-04-10T10:13:09;17.70;57.50
29321;DHT22;16323;51.130;6.612;2023-04-10T10:15:39;17.70;57.80
29321;DHT22;16323;51.130;6.612;2023-04-10T10:18:18;17.70;57.60
29321;DHT22;16323;51.130;6.612;2023-04-10T10:20:47;17.70;57.70
29321;DHT22;16323;51.130;6.612;2023-04-10T10:23:16;17.70;57.40
29321;DHT22;16323;51.130;6.612;2023-04-10T10:25:44;17.70;57.70
29321;DHT22;16323;51.130;6.612;2023-04-10T10:28:13;17.70;57.50
29321;DHT22;16323;51.130;6.612;2023-04-10T10:30:41;17.70;57.60
29321;DHT22;16323;51.130;6.612;2023-04-10T10:33:09;17.70;57.50
29321;DHT22;16323;51.130;6.612;2023-04-10T10:35:38;17.70;57.40
29321;DHT22;16323;51.130;6.612;2023-04-10T10:38:06;17.70;57.40
29321;DHT22;16323;51.130;6.612;2023-04-10T10:40:40;17.70;57.30
29321;DHT22;16323;51.130;6.612;2023-04-10T10:43:13;17.70;57.20
29321;DHT22;16323;51.130;6.612;2023-04-10T10:45:48;17.70;57.30
29321;DHT22;16323;51.130;6.612;2023-04-10T10:48:16;17.70;57.40
29321;DHT22;16323;51.130;6.612;2023-04-10T10:50:53;17.70;57.40
29321;DHT22;16323;51.130;6.612;2023-04-10T10:53:37;17.70;57.30
29321;DHT22;16323;51.130;6.612;2023-04-10T10:56:32;17.70;57.30
29321;DHT22;16323;51.130;6.612;2023-04-10T10:59:01;17.70;57.20
29321;DHT22;16323;51.130;6.612;2023-04-10T11:01:28;17.80;57.60
29321;DHT22;16323;51.130;6.612;2023-04-10T11:03:55;17.70;57.40
29321;DHT22;16323;51.130;6.612;2023-04-10T11:06:48;17.80;57.70
29321;DHT22;16323;51.130;6.612;2023-04-10T11:09:45;17.80;57.70
29321;DHT22;16323;51.130;6.612;2023-04-10T11:12:13;17.80;57.70
29321;DHT22;16323;51.130;6.612;2023-04-10T11:14:42;17.80;57.70
29321;DHT22;16323;51.130;6.612;2023-04-10T11:17:11;17.80;57.60
29321;DHT22;16323;51.130;6.612;2023-04-10T11:19:56;17.80;57.70
29321;DHT22;16323;51.130;6.612;2023-04-10T11:22:25;17.80;57.70
29321;DHT22;16323;51.130;6.612;2023-04-10T11:24:59;17.80;57.80
29321;DHT22;16323;51.130;6.612;2023-04-10T11:27:43;17.80;57.60
29321;DHT22;16323;51.130;6.612;2023-04-10T11:30:33;17.80;57.50
29321;DHT22;16323;51.130;6.612;2023-04-10T11:33:02;17.80;57.70
29321;DHT22;16323;51.130;6.612;2023-04-10T11:35:30;17.80;57.70
29321;DHT22;16323;51.130;6.612;2023-04-10T11:38:15;17.80;57.70
29321;DHT22;16323;51.130;6.612;2023-04-10T11:40:59;17.80;57.80
29321;DHT22;16323;51.130;6.612;2023-04-10T11:43:26;17.80;57.80
29321;DHT22;16323;51.130;6.612;2023-04-10T11:46:05;17.80;57.70
29321;DHT22;16323;51.130;6.612;2023-04-10T11:48:33;17.70;57.70
29321;DHT22;16323;51.130;6.612;2023-04-10T11:51:08;17.80;59.00
29321;DHT22;16323;51.130;6.612;2023-04-10T11:53:36;17.70;57.80
29321;DHT22;16323;51.130;6.612;2023-04-10T11:56:04;17.80;57.90
29321;DHT22;16323;51.130;6.612;2023-04-10T11:58:32;17.80;57.80
29321;DHT22;16323;51.130;6.612;2023-04-10T12:01:00;17.80;58.00
29321;DHT22;16323;51.130;6.612;2023-04-10T12:03:36;17.80;57.90
29321;DHT22;16323;51.130;6.612;2023-04-10T12:06:06;17.80;57.90
29321;DHT22;16323;51.130;6.612;2023-04-10T12:08:34;17.80;58.00
29321;DHT22;16323;51.130;6.612;2023-04-10T12:11:02;17.80;57.80
29321;DHT22;16323;51.130;6.612;2023-04-10T12:13:29;17.80;57.90
29321;DHT22;16323;51.130;6.612;2023-04-10T12:15:58;17.80;57.50
29321;DHT22;16323;51.130;6.612;2023-04-10T12:18:26;17.80;57.70
29321;DHT22;16323;51.130;6.612;2023-04-10T12:20:54;17.80;57.50
29321;DHT22;16323;51.130;6.612;2023-04-10T12:23:22;17.80;57.60
29321;DHT22;16323;51.130;6.612;2023-04-10T12:25:49;17.80;57.70
29321;DHT22;16323;51.130;6.612;2023-04-10T12:28:17;17.80;57.60
29321;DHT22;16323;51.130;6.612;2023-04-10T12:30:48;17.80;57.60
29321;DHT22;16323;51.130;6.612;2023-04-10T12:33:21;17.80;57.60
29321;DHT22;16323;51.130;6.612;2023-04-10T12:35:48;17.80;57.60
29321;DHT22;16323;51.130;6.612;2023-04-10T12:38:34;17.80;57.30
29321;DHT22;16323;51.130;6.612;2023-04-10T12:41:02;17.80;57.40
29321;DHT22;16323;51.130;6.612;2023-04-10T12:43:32;17.80;57.40
29321;DHT22;16323;51.130;6.612;2023-04-10T12:46:00;17.80;57.40
29321;DHT22;16323;51.130;6.612;2023-04-10T12:48:27;17.80;57.40
29321;DHT22;16323;51.130;6.612;2023-04-10T12:50:54;17.80;57.40
29321;DHT22;16323;51.130;6.612;2023-04-10T12:53:22;17.80;57.40
29321;DHT22;16323;51.130;6.612;2023-04-10T12:55:56;17.80;57.50
29321;DHT22;16323;51.130;6.612;2023-04-10T12:58:24;17.80;57.50
29321;DHT22;16323;51.130;6.612;2023-04-10T13:00:53;17.80;57.40
29321;DHT22;16323;51.130;6.612;2023-04-10T13:03:20;17.80;57.50
29321;DHT22;16323;51.130;6.612;2023-04-10T13:05:47;17.80;57.50
29321;DHT22;16323;51.130;6.612;2023-04-10T13:08:14;17.80;57.60
29321;DHT22;16323;51.130;6.612;2023-04-10T13:10:42;17.80;57.30
29321;DHT22;16323;51.130;6.612;2023-04-10T13:13:09;17.80;57.20
29321;DHT22;16323;51.130;6.612;2023-04-10T13:15:38;17.80;57.10
29321;DHT22;16323;51.130;6.612;2023-04-10T13:18:05;17.80;57.20
29321;DHT22;16323;51.130;6.612;2023-04-10T13:20:33;17.80;57.10
29321;DHT22;16323;51.130;6.612;2023-04-10T13:23:00;17.80;57.20
29321;DHT22;16323;51.130;6.612;2023-04-10T13:25:30;17.80;57.20
29321;DHT22;16323;51.130;6.612;2023-04-10T13:27:59;17.80;57.10
29321;DHT22;16323;51.130;6.612;2023-04-10T13:30:26;17.80;57.00
29321;DHT22;16323;51.130;6.612;2023-04-10T13:32:53;17.80;57.10
29321;DHT22;16323;51.130;6.612;2023-04-10T13:35:20;17.80;57.00
29321;DHT22;16323;51.130;6.612;2023-04-10T13:37:47;17.80;57.00
29321;DHT22;16323;51.130;6.612;2023-04-10T13:40:17;17.80;57.00
29321;DHT22;16323;51.130;6.612;2023-04-10T13:42:44;17.80;57.00
29321;DHT22;16323;51.130;6.612;2023-04-10T13:45:12;17.80;57.20
29321;DHT22;16323;51.130;6.612;2023-04-10T13:47:39;17.80;57.10
29321;DHT22;16323;51.130;6.612;2023-04-10T13:50:07;17.80;57.00
29321;DHT22;16323;51.130;6.612;2023-04-10T13:52:33;17.80;57.00
29321;DHT22;16323;51.130;6.612;2023-04-10T13:55:00;17.80;57.00
29321;DHT22;16323;51.130;6.612;2023-04-10T13:57:27;17.90;57.10
29321;DHT22;16323;51.130;6.612;2023-04-10T13:59:54;17.80;57.00
29321;DHT22;16323;51.130;6.612;2023-04-10T14:02:22;17.90;56.90
29321;DHT22;16323;51.130;6.612;2023-04-10T14:04:49;17.80;56.50
29321;DHT22;16323;51.130;6.612;2023-04-10T14:07:16;17.80;56.80
29321;DHT22;16323;51.130;6.612;2023-04-10T14:09:43;17.80;56.70
29321;DHT22;16323;51.130;6.612;2023-04-10T14:12:11;17.80;56.50
29321;DHT22;16323;51.130;6.612;2023-04-10T14:14:40;17.80;56.60
29321;DHT22;16323;51.130;6.612;2023-04-10T14:17:07;17.80;56.60
29321;DHT22;16323;51.130;6.612;2023-04-10T14:19:36;17.80;56.70
29321;DHT22;16323;51.130;6.612;2023-04-10T14:22:03;17.80;56.40
29321;DHT22;16323;51.130;6.612;2023-04-10T14:24:30;17.80;56.30
29321;DHT22;16323;51.130;6.612;2023-04-10T14:26:56;17.80;56.30
29321;DHT22;16323;51.130;6.612;2023-04-10T14:29:25;17.80;56.30
29321;DHT22;16323;51.130;6.612;2023-04-10T14:31:52;17.80;56.50
29321;DHT22;16323;51.130;6.612;2023-04-10T14:34:19;17.80;56.40
29321;DHT22;16323;51.130;6.612;2023-04-10T14:36:47;17.80;56.40
29321;DHT22;16323;51.130;6.612;2023-04-10T14:39:14;17.80;56.40
29321;DHT22;16323;51.130;6.612;2023-04-10T14:41:41;17.80;56.40
29321;DHT22;16323;51.130;6.612;2023-04-10T14:44:07;17.90;56.50
29321;DHT22;16323;51.130;6.612;2023-04-10T14:46:34;17.90;56.60
29321;DHT22;16323;51.130;6.612;2023-04-10T14:49:01;17.90;56.50
29321;DHT22;16323;51.130;6.612;2023-04-10T14:51:28;17.90;56.50
29321;DHT22;16323;51.130;6.612;2023-04-10T14:53:57;17.90;56.40
29321;DHT22;16323;51.130;6.612;2023-04-10T14:56:24;17.90;56.50
29321;DHT22;16323;51.130;6.612;2023-04-10T14:58:51;17.80;56.40
29321;DHT22;16323;51.130;6.612;2023-04-10T15:01:18;17.80;56.50
29321;DHT22;16323;51.130;6.612;2023-04-10T15:03:46;17.90;56.50
29321;DHT22;16323;51.130;6.612;2023-04-10T15:06:13;17.80;56.40
29321;DHT22;16323;51.130;6.612;2023-04-10T15:08:40;17.80;56.40
29321;DHT22;16323;51.130;6.612;2023-04-10T15:11:08;17.80;56.30
29321;DHT22;16323;51.130;6.612;2023-04-10T15:13:35;17.80;56.30
29321;DHT22;16323;51.130;6.612;2023-04-10T15:16:04;17.80;56.20
29321;DHT22;16323;51.130;6.612;2023-04-10T15:18:32;17.80;56.20
29321;DHT22;16323;51.130;6.612;2023-04-10T15:20:59;17.80;56.10
29321;DHT22;16323;51.130;6.612;2023-04-10T15:23:26;17.80;56.10
29321;DHT22;16323;51.130;6.612;2023-04-10T15:25:52;17.80;56.10
29321;DHT22;16323;51.130;6.612;2023-04-10T15:28:20;17.80;56.10
29321;DHT22;16323;51.130;6.612;2023-04-10T15:30:48;17.90;56.20
29321;DHT22;16323;51.130;6.612;2023-04-10T15:33:15;17.90;56.20
29321;DHT22;16323;51.130;6.612;2023-04-10T15:35:42;17.90;56.20
29321;DHT22;16323;51.130;6.612;2023-04-10T15:38:13;17.90;56.30